Time;durP1;ratioP1;P1;durP2;ratioP2;P2;SDS_P1;SDS_P2;PMS_P1;PMS_P2;Temp;Humidity;BMP_temperature;BMP_pressure;BME280_temperature;BME280_humidity;BME280_pressure;Samples;Min_cycle;Max_cycle;Signal;HPM_P1;HPM_P2
2023/06/24 00:02:09;;;;;;;18.35;10.57;;;;;;;21.58;72.22;102317.44;5075074;28;20474;-63
2023/06/24 00:04:34;;;;;;;16.00;10.13;;;;;;;21.59;72.04;102316.56;5074639;28;20470;-63
2023/06/24 00:07:00;;;;;;;14.68;9.98;;;;;;;21.46;72.71;102324.75;5074871;28;20408;-63
2023/06/24 00:09:30;;;;;;;13.30;10.10;;;;;;;21.45;72.89;102324.75;5074638;28;20020;-63
2023/06/24 00:11:58;;;;;;;14.00;9.48;;;;;;;21.56;72.69;102312.09;5074395;28;20503;-62
2023/06/24 00:14:26;;;;;;;14.55;8.88;;;;;;;21.51;72.71;102316.63;5074868;28;20032;-62
2023/06/24 00:16:51;;;;;;;11.82;9.00;;;;;;;21.47;72.28;102320.25;5057193;28;20031;-63
2023/06/24 00:19:21;;;;;;;15.88;9.23;;;;;;;21.46;72.57;102321.19;5074503;28;20021;-63
2023/06/24 00:21:48;;;;;;;11.95;9.32;;;;;;;21.54;72.22;102319.28;5074556;28;20052;-62
2023/06/24 00:24:13;;;;;;;13.02;8.73;;;;;;;21.54;72.52;102319.28;5056605;28;20045;-63
2023/06/24 00:26:38;;;;;;;12.32;8.60;;;;;;;21.58;72.39;102321.00;5074283;28;20060;-63
2023/06/24 00:29:27;;;;;;;13.32;8.23;;;;;;;21.63;72.73;102324.56;5074388;28;20040;-64
2023/06/24 00:31:52;;;;;;;14.57;8.38;;;;;;;21.53;72.48;102324.66;5074189;28;20403;-63
2023/06/24 00:34:19;;;;;;;11.45;8.88;;;;;;;21.43;72.24;102330.16;5095460;22;20059;-69
2023/06/24 00:36:46;;;;;;;14.32;8.60;;;;;;;21.38;72.59;102331.13;5074185;28;20031;-70
2023/06/24 00:39:12;;;;;;;12.18;8.85;;;;;;;21.23;73.27;102333.00;5074101;28;20052;-69
2023/06/24 00:41:37;;;;;;;13.55;8.63;;;;;;;21.20;72.92;102335.75;5074146;28;20048;-69
2023/06/24 00:44:03;;;;;;;13.23;8.90;;;;;;;21.20;72.77;102342.94;5074057;28;20109;-69
2023/06/24 00:46:28;;;;;;;12.57;9.20;;;;;;;21.17;73.63;102338.47;5074186;28;20031;-69
2023/06/24 00:48:55;;;;;;;12.30;9.27;;;;;;;21.14;73.58;102335.78;5073857;28;20037;-69
2023/06/24 00:51:26;;;;;;;15.23;9.50;;;;;;;21.11;73.69;102337.59;5073770;28;20031;-69
2023/06/24 00:53:54;;;;;;;14.10;9.13;;;;;;;21.17;73.49;102343.81;5073777;28;20056;-70
2023/06/24 00:56:22;;;;;;;11.50;8.73;;;;;;;21.11;74.14;102340.28;5055971;28;20052;-70
2023/06/24 00:58:47;;;;;;;10.45;8.45;;;;;;;21.10;73.65;102342.09;5073731;28;20071;-70
2023/06/24 01:01:14;;;;;;;13.05;9.20;;;;;;;21.00;74.51;102338.59;5073727;28;20485;-69
2023/06/24 01:03:40;;;;;;;10.52;8.70;;;;;;;21.00;74.42;102341.28;5073760;28;20052;-69
2023/06/24 01:06:05;;;;;;;12.68;9.38;;;;;;;20.95;74.74;102329.69;5055380;28;20056;-69
2023/06/24 01:08:31;;;;;;;15.30;9.60;;;;;;;20.96;74.21;102330.59;5073457;28;20108;-69
2023/06/24 01:10:56;;;;;;;12.52;9.45;;;;;;;20.98;74.54;102343.13;5073542;28;20029;-69
2023/06/24 01:13:22;;;;;;;12.77;8.57;;;;;;;21.00;73.56;102330.53;5073415;28;20434;-69
2023/06/24 01:15:48;;;;;;;12.35;8.65;;;;;;;20.98;73.92;102318.94;5073407;28;20025;-69
2023/06/24 01:18:22;;;;;;;13.25;9.50;;;;;;;20.96;74.12;102327.91;5073530;28;20182;-69
2023/06/24 01:20:50;;;;;;;11.68;8.85;;;;;;;20.80;74.46;102319.06;5073204;28;20104;-69
2023/06/24 01:23:39;;;;;;;12.00;8.50;;;;;;;20.83;74.13;102315.47;5073520;28;20017;-69
2023/06/24 01:26:25;;;;;;;16.75;8.98;;;;;;;20.69;74.84;102312.91;5072788;28;20070;-69
2023/06/24 01:29:15;;;;;;;12.35;9.18;;;;;;;20.59;75.80;102316.53;5073262;28;20555;-70
2023/06/24 01:31:49;;;;;;;10.82;8.82;;;;;;;20.55;75.17;102309.41;5073125;28;20024;-69
2023/06/24 01:34:34;;;;;;;11.65;8.60;;;;;;;20.53;74.38;102314.81;5072847;28;20045;-70
2023/06/24 01:37:17;;;;;;;12.38;9.13;;;;;;;20.44;74.19;102306.78;5073159;28;20142;-70
2023/06/24 01:40:10;;;;;;;12.48;9.40;;;;;;;20.47;73.40;102310.34;5073109;28;20101;-70
2023/06/24 01:42:41;;;;;;;12.15;8.75;;;;;;;20.46;73.79;102303.16;5073085;28;20526;-70
2023/06/24 01:45:20;;;;;;;10.98;9.23;;;;;;;20.49;73.56;102305.88;5073021;28;20055;-70
2023/06/24 01:47:48;;;;;;;10.45;8.75;;;;;;;20.43;73.20;102316.63;5073144;28;20025;-70
2023/06/24 01:50:16;;;;;;;10.90;8.82;;;;;;;20.40;72.57;102305.91;5072764;28;20024;-70
2023/06/24 01:52:45;;;;;;;12.65;8.70;;;;;;;20.25;74.17;102306.88;5054972;28;20020;-70
2023/06/24 01:55:15;;;;;;;11.93;9.48;;;;;;;20.27;74.00;102305.09;5072897;28;20095;-70
2023/06/24 01:57:43;;;;;;;11.85;8.60;;;;;;;20.25;74.12;102297.94;5072890;28;20028;-70
2023/06/24 02:00:10;;;;;;;12.10;8.57;;;;;;;20.22;73.62;102301.56;5072842;28;20040;-70
2023/06/24 02:02:37;;;;;;;11.25;9.00;;;;;;;20.21;73.55;102299.78;5072528;28;20036;-70
2023/06/24 02:05:05;;;;;;;11.00;9.23;;;;;;;20.17;73.81;102302.44;5072372;28;20024;-70
2023/06/24 02:07:31;;;;;;;13.27;9.38;;;;;;;20.05;74.38;102300.75;5072804;28;20461;-70
2023/06/24 02:09:59;;;;;;;10.25;8.73;;;;;;;19.99;74.41;102301.66;5072671;28;20107;-69
2023/06/24 02:12:27;;;;;;;13.27;8.80;;;;;;;19.88;75.21;102298.16;5072895;28;20157;-70
2023/06/24 02:14:55;;;;;;;10.23;8.30;;;;;;;19.85;74.30;102297.28;5073167;28;20024;-70
2023/06/24 02:17:23;;;;;;;12.10;8.82;;;;;;;19.77;74.28;102300.88;5072492;28;20027;-70
2023/06/24 02:19:50;;;;;;;13.38;8.38;;;;;;;19.67;74.31;102300.94;5072696;28;20499;-70
2023/06/24 02:22:17;;;;;;;12.75;8.68;;;;;;;19.65;74.41;102305.38;5072713;28;20099;-70
2023/06/24 02:24:43;;;;;;;12.40;9.00;;;;;;;19.57;75.17;102304.47;5072704;28;20158;-70
2023/06/24 02:27:11;;;;;;;10.00;8.23;;;;;;;19.47;75.85;102309.88;5072887;28;20125;-70
2023/06/24 02:29:39;;;;;;;11.13;8.82;;;;;;;19.39;76.36;102309.00;5072212;28;20100;-70
2023/06/24 02:32:05;;;;;;;12.43;8.75;;;;;;;19.43;76.25;102307.22;5072297;28;20086;-70
2023/06/24 02:34:31;;;;;;;13.15;8.73;;;;;;;19.52;75.96;102300.03;5072152;28;20056;-69
2023/06/24 02:36:57;;;;;;;11.30;8.55;;;;;;;19.61;75.40;102299.13;5056068;28;20381;-69
2023/06/24 02:39:22;;;;;;;11.70;8.52;;;;;;;19.57;74.96;102300.03;5076912;28;20020;-70
2023/06/24 02:41:49;;;;;;;10.57;8.77;;;;;;;19.52;75.49;102305.38;5058432;28;20063;-69
2023/06/24 02:44:15;;;;;;;12.10;8.45;;;;;;;19.45;75.28;102308.13;5076126;28;20556;-70
2023/06/24 02:46:45;;;;;;;13.82;8.63;;;;;;;19.42;75.16;102303.63;5076334;28;20115;-69
2023/06/24 02:49:13;;;;;;;11.98;8.48;;;;;;;19.42;75.71;102303.63;5076313;28;20067;-69
2023/06/24 02:51:39;;;;;;;16.35;9.13;;;;;;;19.42;75.39;102306.31;5076068;28;20028;-70
2023/06/24 02:54:05;;;;;;;11.00;8.75;;;;;;;19.33;75.70;102303.66;5076147;28;20434;-69
2023/06/24 02:56:32;;;;;;;11.40;8.13;;;;;;;19.29;76.16;102307.25;5076135;28;20052;-69
2023/06/24 02:58:57;;;;;;;12.02;9.05;;;;;;;19.20;76.81;102308.16;5075549;28;20025;-70
2023/06/24 03:01:25;;;;;;;12.50;8.35;;;;;;;19.15;77.03;102312.63;5076101;28;20481;-70
2023/06/24 03:03:55;;;;;;;13.07;9.18;;;;;;;19.06;78.33;102320.69;5076243;28;20541;-69
2023/06/24 03:06:21;;;;;;;12.75;8.45;;;;;;;18.94;78.70;102315.34;5075627;28;20016;-71
2023/06/24 03:08:48;;;;;;;11.95;8.82;;;;;;;18.89;79.10;102319.81;5076226;28;20103;-71
2023/06/24 03:11:14;;;;;;;12.32;9.13;;;;;;;18.92;78.50;102319.78;5075533;28;20024;-71
2023/06/24 03:13:39;;;;;;;12.30;8.82;;;;;;;18.80;78.89;102318.03;5075572;28;20546;-71
2023/06/24 03:16:05;;;;;;;11.10;8.82;;;;;;;18.79;78.61;102321.56;5075438;28;20017;-71
2023/06/24 03:18:31;;;;;;;14.20;9.18;;;;;;;18.72;78.67;102314.44;5075735;28;20024;-70
2023/06/24 03:20:56;;;;;;;17.30;9.10;;;;;;;18.67;79.41;102310.81;5075437;28;20025;-70
2023/06/24 03:23:22;;;;;;;13.75;9.07;;;;;;;18.73;78.69;102316.22;5075627;28;20032;-70
2023/06/24 03:25:47;;;;;;;14.05;9.45;;;;;;;18.71;79.06;102313.56;5075630;28;20024;-70
2023/06/24 03:28:13;;;;;;;14.50;9.35;;;;;;;18.81;78.86;102313.56;5075599;28;20035;-71
2023/06/24 03:30:38;;;;;;;15.20;9.77;;;;;;;18.86;78.12;102307.28;5075446;28;20027;-71
2023/06/24 03:33:06;;;;;;;16.42;9.43;;;;;;;18.86;78.19;102312.66;5075241;28;20048;-71
2023/06/24 03:35:32;;;;;;;13.20;9.68;;;;;;;18.85;77.97;102307.31;5075415;28;20017;-71
2023/06/24 03:37:58;;;;;;;12.65;9.25;;;;;;;18.77;78.59;102318.00;5075580;28;20020;-71
2023/06/24 03:40:23;;;;;;;19.02;9.32;;;;;;;18.73;79.44;102310.88;5075304;28;20047;-71
2023/06/24 03:42:49;;;;;;;10.80;9.10;;;;;;;18.64;79.33;102313.50;5075168;28;20099;-71
2023/06/24 03:45:14;;;;;;;18.15;9.32;;;;;;;18.65;79.74;102315.28;5075208;28;20138;-71
2023/06/24 03:47:39;;;;;;;13.90;9.85;;;;;;;18.68;79.18;102317.97;5074652;28;20032;-71
2023/06/24 03:50:06;;;;;;;14.27;9.85;;;;;;;18.71;78.85;102318.00;5074997;28;20021;-70
2023/06/24 03:52:31;;;;;;;15.27;10.18;;;;;;;18.70;79.15;102319.78;5075344;28;20029;-70
2023/06/24 03:54:56;;;;;;;14.70;9.85;;;;;;;18.70;78.33;102319.78;5075071;28;20055;-70
2023/06/24 03:57:22;;;;;;;14.07;9.73;;;;;;;18.72;78.30;102319.81;5074923;28;20029;-71
2023/06/24 03:59:47;;;;;;;14.68;9.55;;;;;;;18.72;78.44;102326.03;5057079;28;20059;-71
2023/06/24 04:02:13;;;;;;;16.48;10.20;;;;;;;18.73;78.69;102325.16;5075036;28;20060;-71
2023/06/24 04:04:39;;;;;;;13.05;10.10;;;;;;;18.72;78.73;102330.50;5074603;28;20100;-70
2023/06/24 04:07:08;;;;;;;11.77;9.93;;;;;;;18.63;78.90;102331.38;5074588;28;20531;-70
2023/06/24 04:09:34;;;;;;;14.50;9.68;;;;;;;18.55;78.87;102337.59;5074817;28;20086;-71
2023/06/24 04:11:59;;;;;;;13.82;9.50;;;;;;;18.49;79.07;102331.31;5056297;28;20028;-71
2023/06/24 04:14:25;;;;;;;15.60;10.00;;;;;;;18.47;79.42;102332.22;5074716;28;20541;-71
2023/06/24 04:16:50;;;;;;;16.55;10.23;;;;;;;18.50;79.00;102326.88;5074440;28;20025;-70
2023/06/24 04:19:16;;;;;;;10.48;9.15;;;;;;;18.58;79.33;102319.72;5074452;28;20078;-70
2023/06/24 04:21:41;;;;;;;13.20;9.82;;;;;;;18.58;78.92;102324.19;5074527;28;20024;-71
2023/06/24 04:24:07;;;;;;;11.80;9.45;;;;;;;18.62;78.95;102324.19;5056276;28;20055;-70
2023/06/24 04:26:32;;;;;;;13.65;9.45;;;;;;;18.78;77.93;102330.50;5074442;28;20031;-71
2023/06/24 04:28:58;;;;;;;14.48;9.15;;;;;;;18.93;77.68;102337.66;5074250;28;20112;-70
2023/06/24 04:31:23;;;;;;;13.48;8.93;;;;;;;18.98;77.14;102331.41;5074317;28;20028;-70
2023/06/24 04:33:49;;;;;;;12.02;8.60;;;;;;;19.02;76.86;102335.88;5073909;28;20044;-71
2023/06/24 04:36:14;;;;;;;14.05;9.45;;;;;;;19.01;76.72;102331.41;5073963;28;20374;-70
2023/06/24 04:38:39;;;;;;;12.80;9.10;;;;;;;19.13;76.73;102332.28;5074134;28;20063;-71
2023/06/24 04:41:05;;;;;;;11.82;9.40;;;;;;;19.17;76.51;102326.91;5073881;28;20420;-71
2023/06/24 04:43:30;;;;;;;12.30;9.25;;;;;;;19.16;76.41;102333.19;5074164;28;20021;-71
2023/06/24 04:45:56;;;;;;;14.18;9.60;;;;;;;19.17;76.28;102326.91;5074001;28;20025;-71
2023/06/24 04:48:25;;;;;;;14.55;9.52;;;;;;;19.21;76.10;102341.22;5074042;28;20074;-70
2023/06/24 04:50:50;;;;;;;15.80;9.65;;;;;;;19.14;76.11;102340.34;5073701;28;20080;-70
2023/06/24 04:53:15;;;;;;;15.52;9.95;;;;;;;19.12;75.69;102338.53;5073968;28;20033;-71
2023/06/24 04:55:41;;;;;;;14.23;9.32;;;;;;;19.21;75.06;102334.06;5073423;28;20035;-71
2023/06/24 04:58:06;;;;;;;13.90;9.60;;;;;;;19.36;73.33;102334.94;5056398;28;20359;-71
2023/06/24 05:00:32;;;;;;;14.77;10.27;;;;;;;19.45;73.36;102337.59;5073537;28;20021;-71
2023/06/24 05:02:57;;;;;;;14.68;10.00;;;;;;;19.65;72.35;102338.47;5074511;28;20080;-70
2023/06/24 05:05:23;;;;;;;17.40;9.75;;;;;;;19.77;71.43;102337.53;5073699;28;20032;-71
2023/06/24 05:07:48;;;;;;;15.23;9.80;;;;;;;19.76;71.60;102338.44;5073875;28;20495;-70
2023/06/24 05:10:14;;;;;;;16.02;10.05;;;;;;;19.80;71.80;102340.22;5073442;28;20458;-70
2023/06/24 05:12:39;;;;;;;15.75;10.07;;;;;;;19.96;71.11;102333.88;5073524;28;20025;-70
2023/06/24 05:15:06;;;;;;;17.10;10.23;;;;;;;20.05;71.29;102326.69;5055664;28;20021;-70
2023/06/24 05:17:31;;;;;;;16.77;10.70;;;;;;;20.14;71.79;102330.22;5073484;28;20032;-70
2023/06/24 05:19:56;;;;;;;14.68;10.10;;;;;;;20.20;71.30;102338.22;5055502;28;20078;-70
2023/06/24 05:22:23;;;;;;;15.13;10.32;;;;;;;20.23;70.63;102334.66;5073317;28;20027;-70
2023/06/24 05:24:48;;;;;;;18.73;11.43;;;;;;;20.30;70.56;102332.81;5073153;28;20501;-70
2023/06/24 05:27:13;;;;;;;17.52;11.77;;;;;;;20.30;70.57;102332.81;5073270;28;20067;-70
2023/06/24 05:29:39;;;;;;;16.55;11.73;;;;;;;20.36;71.28;102325.63;5055454;28;20036;-70
2023/06/24 05:32:05;;;;;;;17.67;12.50;;;;;;;20.37;71.32;102327.41;5073131;28;20036;-70
2023/06/24 05:34:31;;;;;;;19.40;12.35;;;;;;;20.48;70.70;102338.13;5072735;28;20513;-69
2023/06/24 05:36:56;;;;;;;16.40;12.43;;;;;;;20.53;69.66;102341.66;5073056;28;20029;-70
2023/06/24 05:39:22;;;;;;;20.48;12.80;;;;;;;20.63;69.30;102343.38;5073090;28;20099;-70
2023/06/24 05:41:48;;;;;;;19.33;12.80;;;;;;;20.60;69.33;102338.03;5072902;28;20473;-70
2023/06/24 05:44:14;;;;;;;18.83;12.90;;;;;;;20.69;69.17;102343.34;5073082;28;20029;-70
2023/06/24 05:46:39;;;;;;;15.85;11.77;;;;;;;20.85;67.70;102345.91;5055034;28;20031;-70
2023/06/24 05:49:05;;;;;;;18.00;11.23;;;;;;;21.01;67.63;102342.19;5073197;28;20028;-71
2023/06/24 05:51:30;;;;;;;16.40;11.55;;;;;;;21.12;65.87;102359.13;5072844;28;20029;-70
2023/06/24 05:53:56;;;;;;;15.02;11.40;;;;;;;21.13;65.10;102352.81;5072821;28;20055;-70
2023/06/24 05:56:22;;;;;;;14.77;10.77;;;;;;;21.29;65.17;102348.22;5054765;28;20052;-70
2023/06/24 05:58:48;;;;;;;18.35;11.50;;;;;;;21.41;64.46;102336.44;5072743;28;20021;-70
2023/06/24 06:01:14;;;;;;;14.85;10.75;;;;;;;21.47;63.31;102342.66;5072865;28;20111;-70
2023/06/24 06:03:39;;;;;;;13.50;10.13;;;;;;;21.65;61.13;102346.06;5055271;28;20107;-70
2023/06/24 06:06:05;;;;;;;13.15;9.18;;;;;;;21.80;60.47;102336.91;5072599;28;20548;-71
2023/06/24 06:08:30;;;;;;;13.27;9.95;;;;;;;21.92;59.65;102344.81;5072950;28;20027;-70
2023/06/24 06:10:56;;;;;;;16.73;10.18;;;;;;;21.98;59.76;102351.03;5072341;28;20485;-70
2023/06/24 06:13:21;;;;;;;12.40;9.90;;;;;;;22.07;59.37;102344.66;5072918;28;20060;-70
2023/06/24 06:15:47;;;;;;;17.67;10.38;;;;;;;22.12;59.83;102353.59;5072692;28;20539;-70
2023/06/24 06:18:12;;;;;;;14.65;10.55;;;;;;;22.11;58.82;102346.38;5073023;28;20142;-70
2023/06/24 06:20:37;;;;;;;16.42;10.60;;;;;;;22.25;58.62;102339.03;5072851;28;20338;-70
2023/06/24 06:23:03;;;;;;;14.48;10.02;;;;;;;22.40;59.51;102343.34;5072065;28;20107;-70
2023/06/24 06:25:28;;;;;;;17.65;10.18;;;;;;;22.62;57.24;102353.78;5072559;28;20063;-70
2023/06/24 06:27:54;;;;;;;14.27;9.98;;;;;;;22.80;55.90;102348.09;5072625;28;20428;-70
2023/06/24 06:30:19;;;;;;;16.92;9.88;;;;;;;22.94;55.82;102353.28;5054691;28;20083;-70
2023/06/24 06:32:45;;;;;;;15.05;9.85;;;;;;;22.99;55.44;102354.09;5072341;28;20358;-70
2023/06/24 06:35:10;;;;;;;15.18;9.85;;;;;;;23.13;55.57;102354.78;5072463;28;20426;-70
2023/06/24 06:37:35;;;;;;;14.15;10.00;;;;;;;23.35;55.07;102357.97;5072104;28;20023;-70
2023/06/24 06:40:02;;;;;;;16.40;10.45;;;;;;;23.43;54.44;102358.72;5072263;28;20029;-70
2023/06/24 06:42:28;;;;;;;14.98;10.43;;;;;;;23.50;53.81;102359.47;5072454;28;20090;-70
2023/06/24 06:44:54;;;;;;;12.73;9.50;;;;;;;23.55;53.55;102364.78;5072618;28;20584;-70
2023/06/24 06:47:19;;;;;;;16.50;10.07;;;;;;;23.64;53.85;102367.31;5072483;28;20046;-70
2023/06/24 06:49:44;;;;;;;13.45;9.43;;;;;;;23.83;52.77;102365.19;5072201;28;20024;-71
2023/06/24 06:52:10;;;;;;;13.82;9.45;;;;;;;23.92;52.71;102367.69;5054788;28;20028;-70
2023/06/24 06:54:35;;;;;;;11.63;8.13;;;;;;;24.07;51.47;102371.88;5071840;28;20029;-71
2023/06/24 06:57:04;;;;;;;12.55;8.90;;;;;;;24.07;52.05;102374.56;5072494;28;20108;-70
2023/06/24 06:59:31;;;;;;;13.00;8.80;;;;;;;24.09;51.15;102370.94;5072257;28;20077;-71
2023/06/24 07:01:56;;;;;;;11.88;8.77;;;;;;;24.23;50.53;102371.50;5072096;28;20028;-70
2023/06/24 07:04:22;;;;;;;13.80;8.93;;;;;;;24.38;50.69;102380.25;5071990;28;20029;-70
2023/06/24 07:06:47;;;;;;;12.98;8.38;;;;;;;24.49;50.35;102384.47;5072083;28;20024;-71
2023/06/24 07:09:13;;;;;;;10.82;8.30;;;;;;;24.55;49.50;102382.56;5072053;28;20044;-71
2023/06/24 07:11:39;;;;;;;15.43;8.43;;;;;;;24.77;49.00;102382.94;5072149;28;20020;-70
2023/06/24 07:14:04;;;;;;;13.32;8.60;;;;;;;24.86;48.69;102386.31;5072315;28;20119;-70
2023/06/24 07:16:29;;;;;;;12.55;8.18;;;;;;;25.12;48.81;102382.09;5072244;28;20032;-71
2023/06/24 07:18:55;;;;;;;14.52;8.57;;;;;;;25.27;47.98;102380.81;5072059;28;20060;-71
2023/06/24 07:21:21;;;;;;;10.98;8.57;;;;;;;25.26;48.36;102384.44;5072015;28;20222;-70
2023/06/24 07:23:46;;;;;;;14.27;8.70;;;;;;;25.56;48.58;102383.63;5074821;28;20028;-71
2023/06/24 07:26:11;;;;;;;12.93;8.23;;;;;;;25.77;46.32;102384.88;5075615;28;20388;-70
2023/06/24 07:28:37;;;;;;;12.20;8.10;;;;;;;25.89;46.70;102387.25;5075603;28;20029;-70
2023/06/24 07:31:02;;;;;;;11.80;7.93;;;;;;;25.81;47.67;102383.88;5075545;28;20021;-71
2023/06/24 07:33:30;;;;;;;10.60;7.60;;;;;;;25.98;46.36;102383.38;5075299;28;20036;-70
2023/06/24 07:35:55;;;;;;;10.13;6.80;;;;;;;26.09;44.56;102378.56;5075478;28;20123;-71
2023/06/24 07:38:21;;;;;;;8.48;6.30;;;;;;;26.04;44.22;102379.59;5075227;28;20056;-71
2023/06/24 07:40:46;;;;;;;9.00;5.55;;;;;;;26.11;42.44;102381.19;5057437;28;20070;-70
2023/06/24 07:43:11;;;;;;;8.07;5.80;;;;;;;26.25;43.78;102380.78;5075291;28;20023;-71
2023/06/24 07:45:37;;;;;;;9.75;5.22;;;;;;;26.37;41.53;102381.28;5075326;28;20086;-68
2023/06/24 07:48:02;;;;;;;10.15;4.35;;;;;;;26.57;40.50;102379.81;5075193;28;20060;-67
2023/06/24 07:50:28;;;;;;;9.30;5.30;;;;;;;26.59;40.35;102378.81;5074958;28;20064;-68
2023/06/24 07:52:53;;;;;;;9.30;5.45;;;;;;;26.82;40.41;102375.38;5075069;28;20052;-68
2023/06/24 07:55:19;;;;;;;15.98;6.82;;;;;;;27.03;40.43;102383.75;5075194;28;20036;-67
2023/06/24 07:57:47;;;;;;;6.70;4.97;;;;;;;27.19;40.15;102376.88;5075006;28;20031;-68
2023/06/24 08:00:14;;;;;;;8.32;5.68;;;;;;;27.26;40.15;102373.03;5074901;28;20329;-68
2023/06/24 08:02:40;;;;;;;8.77;4.63;;;;;;;26.91;38.62;102372.38;5075210;28;20025;-68
2023/06/24 08:05:06;;;;;;;8.30;4.90;;;;;;;26.84;37.77;102376.22;5074563;28;20101;-66
2023/06/24 08:07:32;;;;;;;7.03;5.00;;;;;;;27.12;38.62;102381.66;5074955;28;20024;-67
2023/06/24 08:09:57;;;;;;;6.70;4.50;;;;;;;27.15;37.30;102375.19;5074940;28;20465;-67
2023/06/24 08:12:23;;;;;;;7.38;4.70;;;;;;;27.32;37.43;102378.22;5074750;28;20031;-68
2023/06/24 08:14:48;;;;;;;5.28;3.90;;;;;;;27.25;35.72;102373.09;5074646;28;20111;-67
2023/06/24 08:17:14;;;;;;;5.93;3.75;;;;;;;27.50;36.89;102370.41;5074596;28;20108;-68
2023/06/24 08:19:39;;;;;;;6.68;3.83;;;;;;;27.76;36.34;102367.63;5074501;28;20033;-68
2023/06/24 08:22:05;;;;;;;7.55;4.35;;;;;;;27.60;36.08;102375.41;5074409;28;20074;-68
2023/06/24 08:24:31;;;;;;;6.25;3.72;;;;;;;27.68;36.80;102375.16;5074834;28;20469;-67
2023/06/24 08:26:56;;;;;;;5.70;3.90;;;;;;;27.68;36.11;102367.00;5075246;28;20025;-67
2023/06/24 08:29:21;;;;;;;5.75;3.58;;;;;;;27.69;35.47;102368.75;5075799;28;20024;-68
2023/06/24 08:31:47;;;;;;;6.07;3.40;;;;;;;27.95;35.33;102365.09;5074847;28;20099;-68
2023/06/24 08:34:12;;;;;;;5.53;3.35;;;;;;;28.01;35.78;102366.69;5074376;28;20040;-67
2023/06/24 08:36:38;;;;;;;4.63;3.47;;;;;;;28.14;34.00;102355.31;5073959;28;20384;-67
2023/06/24 08:39:03;;;;;;;7.53;3.33;;;;;;;28.13;34.38;102356.22;5074188;28;20074;-68
2023/06/24 08:41:29;;;;;;;4.35;2.85;;;;;;;28.28;33.79;102359.31;5074052;28;20035;-67
2023/06/24 08:43:54;;;;;;;5.43;3.33;;;;;;;28.50;34.10;102353.94;5074306;28;20471;-68
2023/06/24 08:46:21;;;;;;;5.18;3.08;;;;;;;28.77;33.11;102357.34;5073749;28;20036;-68
2023/06/24 08:48:48;;;;;;;4.63;3.00;;;;;;;28.85;33.75;102353.34;5074051;28;20031;-66
2023/06/24 08:51:18;;;;;;;4.22;2.80;;;;;;;28.69;32.58;102349.50;5073972;28;20056;-67
2023/06/24 08:53:44;;;;;;;4.55;2.70;;;;;;;28.45;32.59;102344.13;5074362;28;20029;-73
2023/06/24 08:56:10;;;;;;;3.95;3.08;;;;;;;28.23;32.91;102354.06;5056038;28;20029;-76
2023/06/24 08:58:35;;;;;;;4.90;3.00;;;;;;;28.23;33.56;102359.50;5073889;28;20386;-74
2023/06/24 09:01:02;;;;;;;4.82;2.90;;;;;;;28.31;33.23;102356.47;5073738;28;20020;-73
2023/06/24 09:03:28;;;;;;;5.00;2.83;;;;;;;28.79;33.18;102350.91;5039244;28;20020;-73
2023/06/24 09:05:53;;;;;;;5.25;3.08;;;;;;;28.86;33.26;102349.69;5073329;28;20359;-73
2023/06/24 09:08:21;;;;;;;6.85;2.80;;;;;;;29.29;34.04;102358.75;5073690;28;20024;-73
2023/06/24 09:10:53;;;;;;;3.60;2.67;;;;;;;29.34;32.09;102358.59;5073503;28;20032;-74
2023/06/24 09:13:18;;;;;;;7.30;2.90;;;;;;;29.36;32.46;102348.50;5073618;28;20443;-74
2023/06/24 09:15:44;;;;;;;4.75;2.90;;;;;;;29.20;33.42;102353.72;5055540;28;20085;-73
2023/06/24 09:18:10;;;;;;;3.58;2.67;;;;;;;29.54;31.35;102352.22;5073561;28;20067;-74
2023/06/24 09:20:40;;;;;;;5.32;2.70;;;;;;;29.71;33.49;102336.03;5073148;28;20051;-74
2023/06/24 09:23:06;;;;;;;4.07;2.70;;;;;;;29.98;32.37;102344.78;5073744;28;20029;-74
2023/06/24 09:25:31;;;;;;;6.05;3.00;;;;;;;30.12;30.92;102333.22;5073384;28;20100;-74
2023/06/24 09:28:03;;;;;;;5.18;3.10;;;;;;;30.38;30.65;102332.88;5073178;28;20021;-74
2023/06/24 09:30:29;;;;;;;4.53;2.90;;;;;;;30.26;32.26;102333.47;5074021;28;20024;-74
2023/06/24 09:32:55;;;;;;;6.45;3.00;;;;;;;30.08;29.75;102331.59;5073390;28;20128;-73
2023/06/24 09:35:23;;;;;;;5.50;2.90;;;;;;;30.51;31.31;102316.78;5074090;28;20431;-73
2023/06/24 09:37:54;;;;;;;5.15;3.15;;;;;;;30.72;30.63;102320.31;5056032;28;20025;-73
2023/06/24 09:40:23;;;;;;;4.35;3.03;;;;;;;30.55;29.99;102317.50;5073695;28;20063;-73
2023/06/24 09:42:56;;;;;;;4.65;3.13;;;;;;;30.24;30.69;102313.56;5073049;28;20017;-73
2023/06/24 09:45:28;;;;;;;5.68;3.00;;;;;;;30.46;31.85;102313.41;5073799;28;20377;-73
2023/06/24 09:47:55;;;;;;;4.93;2.88;;;;;;;30.75;30.01;102314.72;5072881;28;20028;-73
2023/06/24 09:50:21;;;;;;;4.47;3.00;;;;;;;31.09;29.63;102315.66;5055153;28;20024;-72
2023/06/24 09:52:48;;;;;;;5.32;3.00;;;;;;;31.22;30.99;102304.97;5073294;28;20499;-73
2023/06/24 09:55:16;;;;;;;4.95;3.03;;;;;;;31.26;28.87;102299.28;5072888;28;20017;-73
2023/06/24 09:57:46;;;;;;;4.53;3.10;;;;;;;31.01;28.69;102304.28;5072964;28;20036;-73
2023/06/24 10:00:17;;;;;;;4.90;2.97;;;;;;;31.29;29.95;102307.34;5072693;28;20048;-73
2023/06/24 10:02:44;;;;;;;5.93;3.13;;;;;;;31.42;30.56;102300.25;5072954;28;20032;-74
2023/06/24 10:05:09;;;;;;;5.40;3.10;;;;;;;31.63;29.06;102314.59;5072614;28;20017;-73
2023/06/24 10:07:36;;;;;;;4.82;3.13;;;;;;;31.89;28.81;102313.19;5073053;28;20032;-73
2023/06/24 10:10:05;;;;;;;4.13;2.78;;;;;;;32.17;27.78;102304.31;5072682;28;20494;-73
2023/06/24 10:12:31;;;;;;;4.75;2.72;;;;;;;31.90;28.39;102304.00;5072616;28;20032;-73
2023/06/24 10:14:58;;;;;;;4.35;2.92;;;;;;;32.04;27.71;102306.00;5072588;28;20082;-73
2023/06/24 10:17:24;;;;;;;3.95;2.90;;;;;;;32.27;28.01;102306.53;5072665;28;20020;-73
2023/06/24 10:19:53;;;;;;;5.00;2.92;;;;;;;32.05;26.76;102313.22;5072718;28;20035;-69
2023/06/24 10:22:25;;;;;;;5.22;2.90;;;;;;;32.13;25.97;102305.47;5072814;28;20033;-68
2023/06/24 10:24:52;;;;;;;4.07;2.80;;;;;;;32.36;25.85;102289.56;5072662;28;20056;-73
2023/06/24 10:27:21;;;;;;;4.70;3.00;;;;;;;32.51;27.10;102298.78;5072530;28;20078;-72
2023/06/24 10:29:52;;;;;;;4.88;3.10;;;;;;;32.28;27.58;102298.22;5054581;28;20102;-72
2023/06/24 10:32:21;;;;;;;4.87;3.30;;;;;;;32.59;26.97;102294.63;5072459;28;20082;-72
2023/06/24 10:34:48;;;;;;;4.82;3.20;;;;;;;32.26;28.25;102296.56;5072306;28;20123;-73
2023/06/24 10:37:21;;;;;;;4.68;3.30;;;;;;;32.25;27.62;102298.41;5072582;28;20024;-73
2023/06/24 10:39:57;;;;;;;4.70;3.30;;;;;;;32.49;26.18;102282.44;5072513;28;20075;-72
2023/06/24 10:42:28;;;;;;;4.40;3.10;;;;;;;32.78;25.50;102294.41;5072632;28;20036;-72
2023/06/24 10:44:55;;;;;;;4.53;3.30;;;;;;;32.96;26.36;102283.34;5072628;28;20021;-73
2023/06/24 10:47:25;;;;;;;4.82;3.30;;;;;;;33.20;26.68;102290.06;5072385;28;20028;-68
2023/06/24 10:49:51;;;;;;;4.88;3.50;;;;;;;33.45;27.74;102264.78;5072613;28;20107;-68
2023/06/24 10:52:21;;;;;;;9.82;3.22;;;;;;;33.54;26.57;102272.41;5072214;28;20055;-67
2023/06/24 10:54:47;;;;;;;3.60;2.88;;;;;;;33.63;24.68;102277.28;5072484;28;20039;-67
2023/06/24 10:57:12;;;;;;;7.65;3.20;;;;;;;33.08;26.78;102279.84;5072597;28;20107;-69
2023/06/24 10:59:42;;;;;;;5.05;3.22;;;;;;;33.18;25.66;102278.28;5076002;28;20028;-68
2023/06/24 11:02:12;;;;;;;4.90;3.22;;;;;;;33.04;25.84;102273.69;5076147;28;20025;-68
2023/06/24 11:04:52;;;;;;;6.55;3.53;;;;;;;33.40;28.11;102270.50;5058027;28;20384;-68
2023/06/24 11:07:24;;;;;;;4.82;3.47;;;;;;;33.61;26.35;102275.63;5075815;28;20028;-67
2023/06/24 11:09:55;;;;;;;5.50;3.22;;;;;;;33.94;25.85;102267.06;5076004;28;20040;-68
2023/06/24 11:12:31;;;;;;;8.75;3.42;;;;;;;34.11;26.64;102258.66;5076097;28;20025;-68
2023/06/24 11:14:58;;;;;;;6.05;3.30;;;;;;;34.39;25.06;102259.56;5075983;28;20016;-69
2023/06/24 11:17:24;;;;;;;6.20;3.50;;;;;;;34.31;26.84;102259.19;5075952;28;20037;-68
2023/06/24 11:19:53;;;;;;;6.88;3.30;;;;;;;34.61;26.37;102248.03;5075829;28;20024;-68